createdAt,value
2018-06-23T00:01:33.724Z,17.07
2018-06-23T00:04:01.760Z,17.05
2018-06-23T00:06:29.860Z,16.05
2018-06-23T00:08:57.873Z,13.88
2018-06-23T00:11:25.884Z,17.25
2018-06-23T00:13:53.945Z,13.95
2018-06-23T00:16:21.975Z,18.97
2018-06-23T00:18:49.996Z,16.52
2018-06-23T00:21:18.005Z,14.28
2018-06-23T00:23:46.030Z,15.57
2018-06-23T00:26:19.531Z,15.72
2018-06-23T00:28:47.592Z,13.50
2018-06-23T00:31:15.636Z,12.75
2018-06-23T00:33:43.678Z,19.73
2018-06-23T00:36:11.677Z,15.05
2018-06-23T00:38:39.692Z,15.30
2018-06-23T00:41:07.528Z,17.23
2018-06-23T00:43:35.541Z,15.35
2018-06-23T00:46:03.580Z,21.85
2018-06-23T00:48:31.592Z,14.70
2018-06-23T00:50:59.600Z,12.90
2018-06-23T00:53:27.642Z,20.50
2018-06-23T00:55:55.700Z,16.45
2018-06-23T00:58:23.728Z,16.85
2018-06-23T01:00:51.754Z,17.10
2018-06-23T01:03:19.751Z,15.08
2018-06-23T01:05:47.794Z,12.73
2018-06-23T01:08:15.848Z,17.43
2018-06-23T01:10:43.848Z,16.27
2018-06-23T01:13:11.860Z,15.90
2018-06-23T01:15:39.691Z,10.95
2018-06-23T01:18:07.695Z,13.43
2018-06-23T01:20:35.551Z,15.08
2018-06-23T01:23:03.576Z,17.77
2018-06-23T01:25:31.584Z,13.50
2018-06-23T01:27:59.644Z,18.15
2018-06-23T01:30:27.664Z,14.00
2018-06-23T01:32:55.676Z,17.15
2018-06-23T01:35:23.695Z,16.57
2018-06-23T01:37:51.708Z,20.70
2018-06-23T01:40:19.743Z,11.03
2018-06-23T01:42:47.750Z,11.28
2018-06-23T01:45:15.808Z,16.05
2018-06-23T01:47:43.826Z,9.95
2018-06-23T01:50:11.841Z,12.60
2018-06-23T01:52:39.848Z,10.03
2018-06-23T01:55:07.914Z,10.00
2018-06-23T01:57:35.982Z,9.77
2018-06-23T02:00:04.000Z,12.40
2018-06-23T02:02:32.012Z,13.25
2018-06-23T02:05:00.025Z,9.23
2018-06-23T02:07:28.064Z,10.85
2018-06-23T02:09:56.068Z,12.65
2018-06-23T02:12:23.897Z,11.45
2018-06-23T02:14:57.420Z,10.13
2018-06-23T02:17:30.814Z,9.53
2018-06-23T02:20:04.226Z,7.87
2018-06-23T02:22:37.578Z,7.92
2018-06-23T02:25:11.038Z,10.30
2018-06-23T02:27:44.473Z,13.32
2018-06-23T02:30:17.917Z,12.50
2018-06-23T02:32:51.591Z,8.20
2018-06-23T02:35:19.964Z,11.97
2018-06-23T02:37:48.019Z,15.13
2018-06-23T02:40:16.040Z,9.60
2018-06-23T02:42:44.056Z,11.38
2018-06-23T02:45:12.101Z,11.83
2018-06-23T02:47:40.119Z,6.28
2018-06-23T02:50:08.162Z,7.70
2018-06-23T02:52:36.172Z,9.60
2018-06-23T02:55:04.034Z,8.60
2018-06-23T02:57:32.064Z,7.40
2018-06-23T03:00:00.101Z,8.40
2018-06-23T03:02:28.092Z,8.15
2018-06-23T03:04:56.473Z,7.42
2018-06-23T03:07:24.585Z,7.20
2018-06-23T03:09:52.592Z,6.37
2018-06-23T03:12:20.620Z,6.62
2018-06-23T03:14:48.640Z,7.15
2018-06-23T03:17:17.652Z,9.78
2018-06-23T03:19:50.128Z,8.43
2018-06-23T03:22:18.396Z,8.03
2018-06-23T03:24:46.436Z,11.10
2018-06-23T03:27:14.761Z,8.20
2018-06-23T03:29:42.794Z,7.45
2018-06-23T03:32:11.360Z,8.90
2018-06-23T03:34:39.369Z,9.85
2018-06-23T03:37:07.404Z,9.95
2018-06-23T03:39:35.423Z,9.88
2018-06-23T03:42:03.450Z,8.35
2018-06-23T03:44:31.460Z,5.92
2018-06-23T03:46:59.480Z,8.18
2018-06-23T03:49:27.509Z,6.35
2018-06-23T03:51:55.523Z,9.95
2018-06-23T03:54:23.544Z,10.20
2018-06-23T03:56:51.603Z,8.98
2018-06-23T03:59:19.640Z,7.30
2018-06-23T04:01:47.660Z,9.30
2018-06-23T04:04:15.705Z,11.48
2018-06-23T04:06:43.725Z,8.70
2018-06-23T04:09:11.978Z,9.88
2018-06-23T04:11:40.140Z,8.43
2018-06-23T04:14:08.501Z,7.60
2018-06-23T04:16:36.514Z,7.12
2018-06-23T04:19:04.561Z,10.70
2018-06-23T04:21:32.576Z,10.48
2018-06-23T04:24:00.670Z,7.33
2018-06-23T04:26:29.256Z,6.25
2018-06-23T04:28:57.752Z,9.28
2018-06-23T04:31:25.755Z,6.62
2018-06-23T04:33:53.575Z,8.45
2018-06-23T04:36:21.580Z,9.35
2018-06-23T04:38:49.615Z,9.13
2018-06-23T04:41:17.624Z,7.15
2018-06-23T04:43:45.648Z,10.53
2018-06-23T04:46:13.648Z,7.95
2018-06-23T04:48:41.707Z,10.25
2018-06-23T04:51:09.712Z,10.85
2018-06-23T04:53:43.495Z,10.45
2018-06-23T04:56:11.524Z,9.20
2018-06-23T04:58:39.919Z,10.45
2018-06-23T05:01:07.972Z,9.80
2018-06-23T05:03:36.002Z,6.90
2018-06-23T05:06:04.028Z,8.43
2018-06-23T05:08:32.044Z,9.38
2018-06-23T05:11:00.064Z,7.90
2018-06-23T05:13:28.064Z,8.90
2018-06-23T05:15:56.056Z,9.70
2018-06-23T05:18:24.107Z,7.97
2018-06-23T05:20:52.123Z,7.00
2018-06-23T05:23:20.148Z,4.62
2018-06-23T05:25:48.161Z,8.18
2018-06-23T05:28:16.192Z,6.47
2018-06-23T05:30:44.006Z,9.60
2018-06-23T05:33:12.062Z,7.05
2018-06-23T05:35:40.073Z,9.43
2018-06-23T05:38:08.346Z,9.15
2018-06-23T05:40:36.364Z,7.45
2018-06-23T05:43:04.376Z,7.62
2018-06-23T05:45:32.416Z,7.62
2018-06-23T05:48:01.024Z,8.65
2018-06-23T05:50:29.072Z,6.67
2018-06-23T05:52:57.155Z,5.10
2018-06-23T05:55:25.200Z,7.15
2018-06-23T05:57:53.225Z,8.50
2018-06-23T06:00:21.252Z,6.03
2018-06-23T06:02:49.261Z,8.95
2018-06-23T06:05:17.286Z,6.85
2018-06-23T06:07:45.296Z,8.23
2018-06-23T06:10:13.320Z,7.12
2018-06-23T06:12:41.372Z,7.10
2018-06-23T06:15:09.393Z,6.40
2018-06-23T06:17:38.609Z,7.03
2018-06-23T06:20:08.300Z,4.58
2018-06-23T06:22:38.516Z,8.65
2018-06-23T06:25:06.780Z,8.10
2018-06-23T06:27:34.856Z,9.43
2018-06-23T06:30:02.872Z,7.87
2018-06-23T06:32:30.711Z,7.35
2018-06-23T06:34:58.892Z,7.80
2018-06-23T06:37:26.900Z,6.00
2018-06-23T06:39:54.907Z,6.80
2018-06-23T06:42:22.940Z,6.70
2018-06-23T06:44:50.940Z,7.90
2018-06-23T06:47:19.741Z,7.17
2018-06-23T06:49:48.031Z,6.30
2018-06-23T06:52:16.050Z,6.42
2018-06-23T06:54:44.487Z,5.95
2018-06-23T06:57:12.576Z,6.95
2018-06-23T06:59:40.535Z,6.00
2018-06-23T07:02:08.780Z,7.12
2018-06-23T07:04:36.824Z,6.73
2018-06-23T07:07:04.860Z,7.40
2018-06-23T07:09:32.675Z,7.15
2018-06-23T07:12:00.691Z,5.12
2018-06-23T07:14:28.699Z,6.90
2018-06-23T07:16:56.712Z,5.72
2018-06-23T07:19:24.770Z,5.53
2018-06-23T07:21:52.776Z,5.87
2018-06-23T07:24:20.809Z,4.80
2018-06-23T07:26:48.880Z,8.55
2018-06-23T07:29:16.839Z,8.38
2018-06-23T07:31:44.844Z,8.03
2018-06-23T07:34:12.906Z,10.38
2018-06-23T07:36:40.900Z,7.60
2018-06-23T07:39:10.145Z,9.53
2018-06-23T07:41:38.344Z,9.00
2018-06-23T07:44:06.947Z,9.93
2018-06-23T07:46:35.178Z,8.08
2018-06-23T07:49:03.152Z,9.50
2018-06-23T07:51:31.328Z,8.75
2018-06-23T07:53:59.369Z,9.18
2018-06-23T07:56:27.379Z,9.60
2018-06-23T07:58:55.536Z,10.43
2018-06-23T08:01:23.544Z,8.90
2018-06-23T08:03:51.363Z,9.83
2018-06-23T08:06:19.389Z,9.50
2018-06-23T08:08:47.396Z,8.38
2018-06-23T08:11:15.489Z,9.40
2018-06-23T08:13:43.493Z,11.10
2018-06-23T08:16:11.509Z,12.75
2018-06-23T08:18:39.570Z,11.38
2018-06-23T08:21:07.561Z,12.33
2018-06-23T08:23:35.564Z,13.08
2018-06-23T08:26:03.458Z,10.60
2018-06-23T08:28:32.089Z,12.75
2018-06-23T08:31:00.125Z,10.03
2018-06-23T08:33:29.147Z,10.40
2018-06-23T08:35:57.183Z,11.25
2018-06-23T08:38:25.202Z,13.62
2018-06-23T08:40:53.220Z,10.70
2018-06-23T08:43:21.235Z,8.60
2018-06-23T08:45:49.246Z,9.28
2018-06-23T08:48:17.304Z,11.75
2018-06-23T08:50:45.469Z,9.97
2018-06-23T08:53:13.466Z,13.50
2018-06-23T08:55:41.497Z,9.88
2018-06-23T08:58:09.492Z,11.63
2018-06-23T09:00:37.516Z,9.48
2018-06-23T09:03:05.904Z,9.93
2018-06-23T09:05:34.073Z,9.70
2018-06-23T09:08:02.085Z,9.85
2018-06-23T09:10:30.106Z,10.50
2018-06-23T09:12:58.117Z,9.60
2018-06-23T09:15:26.118Z,11.35
2018-06-23T09:17:54.152Z,10.15
2018-06-23T09:20:21.963Z,7.15
2018-06-23T09:22:49.981Z,7.60
2018-06-23T09:25:18.012Z,8.38
2018-06-23T09:27:46.008Z,7.62
2018-06-23T09:30:14.024Z,8.68
2018-06-23T09:32:42.046Z,8.03
2018-06-23T09:35:10.054Z,6.33
2018-06-23T09:37:38.077Z,6.70
2018-06-23T09:40:06.097Z,8.50
2018-06-23T09:42:34.107Z,10.43
2018-06-23T09:45:02.117Z,8.20
2018-06-23T09:47:30.152Z,7.58
2018-06-23T09:49:58.171Z,10.30
2018-06-23T09:52:26.188Z,6.57
2018-06-23T09:54:54.188Z,8.05
2018-06-23T09:57:22.003Z,9.33
2018-06-23T09:59:50.022Z,6.87
2018-06-23T10:02:17.851Z,6.60
2018-06-23T10:04:45.852Z,7.95
2018-06-23T10:07:13.687Z,9.28
2018-06-23T10:09:41.683Z,7.50
2018-06-23T10:12:09.686Z,7.58
2018-06-23T10:14:37.716Z,8.95
2018-06-23T10:17:05.556Z,8.70
2018-06-23T10:19:33.580Z,8.63
2018-06-23T10:22:01.600Z,10.50
2018-06-23T10:24:29.700Z,7.15
2018-06-23T10:26:57.723Z,10.60
2018-06-23T10:29:25.744Z,10.28
2018-06-23T10:31:54.143Z,8.15
2018-06-23T10:34:22.169Z,7.83
2018-06-23T10:36:50.189Z,8.53
2018-06-23T10:39:18.262Z,11.90
2018-06-23T10:41:46.360Z,8.23
2018-06-23T10:44:14.368Z,14.10
2018-06-23T10:46:42.200Z,10.85
2018-06-23T10:49:10.231Z,11.70
2018-06-23T10:51:38.232Z,5.85
2018-06-23T10:54:06.316Z,8.70
2018-06-23T10:56:34.348Z,8.98
2018-06-23T10:59:02.429Z,6.85
2018-06-23T11:01:30.468Z,8.45
2018-06-23T11:03:58.517Z,11.78
2018-06-23T11:06:26.532Z,8.45
2018-06-23T11:08:54.606Z,6.60
2018-06-23T11:11:22.576Z,7.83
2018-06-23T11:13:50.618Z,6.37
2018-06-23T11:16:18.625Z,6.30
2018-06-23T11:18:46.669Z,7.05
2018-06-23T11:21:14.761Z,5.83
2018-06-23T11:23:42.780Z,8.13
2018-06-23T11:26:10.591Z,6.35
2018-06-23T11:28:38.606Z,7.30
2018-06-23T11:31:06.633Z,4.97
2018-06-23T11:33:34.636Z,4.87
2018-06-23T11:36:02.650Z,6.08
2018-06-23T11:38:30.660Z,8.55
2018-06-23T11:40:58.672Z,6.20
2018-06-23T11:43:26.689Z,4.50
2018-06-23T11:45:54.693Z,8.78
2018-06-23T11:48:22.779Z,6.58
2018-06-23T11:50:50.860Z,7.70
2018-06-23T11:53:18.892Z,6.67
2018-06-23T11:55:46.920Z,7.97
2018-06-23T11:58:14.923Z,7.92
2018-06-23T12:00:42.924Z,7.20
2018-06-23T12:03:10.818Z,6.25
2018-06-23T12:05:38.823Z,6.15
2018-06-23T12:08:06.849Z,4.97
2018-06-23T12:10:34.856Z,7.92
2018-06-23T12:13:02.878Z,6.47
2018-06-23T12:15:30.888Z,7.42
2018-06-23T12:17:58.920Z,6.17
2018-06-23T12:20:26.950Z,6.75
2018-06-23T12:22:54.980Z,7.95
2018-06-23T12:25:23.069Z,6.80
2018-06-23T12:27:51.030Z,5.47
2018-06-23T12:30:19.146Z,7.58
2018-06-23T12:32:47.202Z,6.65
2018-06-23T12:35:15.207Z,4.47
2018-06-23T12:37:43.040Z,5.78
2018-06-23T12:40:11.082Z,5.87
2018-06-23T12:42:39.108Z,8.07
2018-06-23T12:45:07.127Z,7.10
2018-06-23T12:47:35.190Z,6.78
2018-06-23T12:50:03.221Z,6.33
2018-06-23T12:52:31.231Z,8.08
2018-06-23T12:54:59.272Z,10.43
2018-06-23T12:57:27.300Z,5.95
2018-06-23T12:59:55.320Z,6.65
2018-06-23T13:02:23.552Z,8.33
2018-06-23T13:04:51.626Z,6.97
2018-06-23T13:07:19.585Z,10.38
2018-06-23T13:09:47.892Z,9.08
2018-06-23T13:12:15.908Z,10.20
2018-06-23T13:14:43.973Z,10.00
2018-06-23T13:17:12.001Z,13.38
2018-06-23T13:19:40.030Z,11.25
2018-06-23T13:22:08.068Z,10.80
2018-06-23T13:24:36.107Z,11.40
2018-06-23T13:27:04.141Z,11.48
2018-06-23T13:29:32.169Z,9.40
2018-06-23T13:32:00.205Z,9.68
2018-06-23T13:34:28.066Z,10.58
2018-06-23T13:36:56.078Z,9.43
2018-06-23T13:39:24.152Z,12.15
2018-06-23T13:41:52.184Z,8.97
2018-06-23T13:44:20.012Z,9.53
2018-06-23T13:46:48.064Z,9.80
2018-06-23T13:49:16.098Z,10.05
2018-06-23T13:51:44.145Z,10.15
2018-06-23T13:54:12.168Z,12.75
2018-06-23T13:56:40.211Z,10.65
2018-06-23T13:59:08.047Z,11.30
2018-06-23T14:01:36.057Z,11.80
2018-06-23T14:04:04.118Z,11.08
2018-06-23T14:06:32.142Z,11.88
2018-06-23T14:09:00.205Z,10.05
2018-06-23T14:11:28.247Z,14.45
2018-06-23T14:13:56.290Z,12.13
2018-06-23T14:16:24.104Z,12.03
2018-06-23T14:18:52.116Z,10.00
2018-06-23T14:21:19.940Z,11.57
2018-06-23T14:23:47.974Z,12.05
2018-06-23T14:26:15.995Z,12.30
2018-06-23T14:28:44.004Z,9.28
2018-06-23T14:31:11.824Z,11.35
2018-06-23T14:33:39.868Z,13.28
2018-06-23T14:36:07.900Z,10.47
2018-06-23T14:38:35.742Z,13.03
2018-06-23T14:41:03.772Z,9.43
2018-06-23T14:43:31.806Z,10.30
2018-06-23T14:45:59.635Z,8.35
2018-06-23T14:48:27.635Z,8.83
2018-06-23T14:50:56.068Z,10.48
2018-06-23T14:53:24.076Z,7.85
2018-06-23T14:55:52.124Z,7.90
2018-06-23T14:58:20.195Z,9.28
2018-06-23T15:00:48.260Z,10.20
2018-06-23T15:03:16.308Z,9.20
2018-06-23T15:05:44.333Z,9.03
2018-06-23T15:08:23.656Z,9.95
2018-06-23T15:11:03.136Z,9.10
2018-06-23T15:13:31.184Z,7.50
2018-06-23T15:15:59.180Z,7.28
2018-06-23T15:18:27.215Z,5.93
2018-06-23T15:20:55.037Z,6.05
2018-06-23T15:23:23.062Z,8.45
2018-06-23T15:25:52.149Z,6.90
2018-06-23T15:28:19.968Z,6.60
2018-06-23T15:30:47.987Z,8.35
2018-06-23T15:33:16.015Z,8.28
2018-06-23T15:35:44.020Z,7.83
2018-06-23T15:38:11.847Z,11.97
2018-06-23T15:40:39.863Z,9.43
2018-06-23T15:43:07.861Z,12.00
2018-06-23T15:45:35.868Z,10.43
2018-06-23T15:48:03.883Z,8.20
2018-06-23T15:50:31.908Z,9.63
2018-06-23T15:52:59.920Z,8.55
2018-06-23T15:55:27.955Z,10.63
2018-06-23T15:57:55.973Z,11.25
2018-06-23T16:00:24.035Z,10.72
2018-06-23T16:02:52.065Z,12.63
2018-06-23T16:05:20.081Z,9.50
2018-06-23T16:07:48.153Z,12.00
2018-06-23T16:10:19.016Z,12.80
2018-06-23T16:12:47.049Z,9.50
2018-06-23T16:15:15.099Z,13.80
2018-06-23T16:17:43.116Z,12.10
2018-06-23T16:20:11.136Z,10.75
2018-06-23T16:22:39.213Z,11.57
2018-06-23T16:25:07.052Z,12.73
2018-06-23T16:27:35.307Z,11.03
2018-06-23T16:30:03.513Z,11.57
2018-06-23T16:32:31.548Z,13.50
2018-06-23T16:34:59.766Z,11.88
2018-06-23T16:37:27.629Z,14.43
2018-06-23T16:39:55.640Z,12.90
2018-06-23T16:42:23.668Z,10.65
2018-06-23T16:44:51.708Z,13.08
2018-06-23T16:47:19.747Z,14.30
2018-06-23T16:49:47.736Z,15.43
2018-06-23T16:52:16.116Z,15.28
2018-06-23T16:54:44.116Z,11.70
2018-06-23T16:57:12.155Z,14.58
2018-06-23T16:59:40.172Z,11.23
2018-06-23T17:02:09.232Z,11.33
2018-06-23T17:04:37.267Z,14.53
2018-06-23T17:07:05.289Z,14.70
2018-06-23T17:09:33.345Z,14.28
2018-06-23T17:12:01.390Z,13.30
2018-06-23T17:14:29.392Z,14.50
2018-06-23T17:16:57.436Z,13.62
2018-06-23T17:19:25.467Z,13.58
2018-06-23T17:21:53.288Z,12.78
2018-06-23T17:24:21.292Z,11.60
2018-06-23T17:26:49.321Z,16.67
2018-06-23T17:29:17.344Z,12.97
2018-06-23T17:31:45.360Z,16.12
2018-06-23T17:34:13.406Z,15.32
2018-06-23T17:36:41.448Z,11.22
2018-06-23T17:39:10.700Z,16.05
2018-06-23T17:41:38.995Z,14.13
2018-06-23T17:44:07.025Z,15.20
2018-06-23T17:46:35.138Z,17.03
2018-06-23T17:49:03.195Z,13.13
2018-06-23T17:51:31.289Z,13.20
2018-06-23T17:53:59.249Z,12.55
2018-06-23T17:56:27.268Z,17.37
2018-06-23T17:58:55.287Z,11.43
2018-06-23T18:01:23.119Z,11.05
2018-06-23T18:03:51.134Z,10.28
2018-06-23T18:06:19.055Z,10.90
2018-06-23T18:08:47.023Z,11.60
2018-06-23T18:11:15.438Z,10.18
2018-06-23T18:13:43.446Z,12.70
2018-06-23T18:16:11.461Z,13.78
2018-06-23T18:18:39.505Z,12.18
2018-06-23T18:21:07.533Z,13.30
2018-06-23T18:23:35.359Z,12.80
2018-06-23T18:26:03.428Z,12.85
2018-06-23T18:28:31.445Z,12.28
2018-06-23T18:30:59.471Z,11.55
2018-06-23T18:33:27.549Z,12.85
2018-06-23T18:35:55.695Z,10.95
2018-06-23T18:39:26.752Z,12.55
2018-06-23T18:41:54.814Z,12.53
2018-06-23T18:44:22.865Z,10.60
2018-06-23T18:46:50.945Z,10.30
2018-06-23T18:49:18.987Z,11.10
2018-06-23T18:51:47.003Z,10.00
2018-06-23T18:54:15.017Z,10.50
2018-06-23T18:56:43.065Z,11.38
2018-06-23T18:59:11.155Z,11.45
2018-06-23T19:01:39.209Z,11.60
2018-06-23T19:04:07.237Z,11.05
2018-06-23T19:06:35.319Z,11.12
2018-06-23T19:09:04.168Z,11.93
2018-06-23T19:11:32.145Z,12.65
2018-06-23T19:14:00.211Z,12.18
2018-06-23T19:16:28.232Z,11.63
2018-06-23T19:18:56.277Z,12.82
2018-06-23T19:21:24.308Z,13.53
2018-06-23T19:23:52.323Z,12.95
2018-06-23T19:26:20.348Z,15.53
2018-06-23T19:28:48.472Z,15.43
2018-06-23T19:31:16.485Z,15.93
2018-06-23T19:33:44.315Z,12.05
2018-06-23T19:36:12.349Z,12.88
2018-06-23T19:38:40.457Z,14.20
2018-06-23T19:41:19.299Z,15.53
2018-06-23T19:43:47.390Z,14.45
2018-06-23T19:46:15.620Z,17.05
2018-06-23T19:48:43.804Z,16.67
2018-06-23T19:51:11.830Z,16.35
2018-06-23T19:53:39.879Z,17.67
2018-06-23T19:56:07.688Z,18.92
2018-06-23T19:58:35.974Z,18.27
2018-06-23T20:01:03.996Z,16.15
2018-06-23T20:03:32.027Z,16.35
2018-06-23T20:06:00.034Z,20.75
2018-06-23T20:08:28.094Z,16.67
2018-06-23T20:10:56.117Z,20.52
2018-06-23T20:13:24.136Z,20.95
2018-06-23T20:15:52.365Z,21.07
2018-06-23T20:18:20.416Z,16.87
2018-06-23T20:20:48.445Z,19.40
2018-06-23T20:23:16.524Z,19.60
2018-06-23T20:25:44.688Z,17.95
2018-06-23T20:28:12.522Z,19.37
2018-06-23T20:30:40.702Z,16.65
2018-06-23T20:33:08.773Z,18.15
2018-06-23T20:35:36.812Z,17.17
2018-06-23T20:38:04.901Z,16.97
2018-06-23T20:40:33.136Z,20.95
2018-06-23T20:43:01.168Z,16.12
2018-06-23T20:45:29.220Z,17.35
2018-06-23T20:47:57.254Z,20.62
2018-06-23T20:50:25.293Z,19.80
2018-06-23T20:52:53.120Z,20.30
2018-06-23T20:55:21.171Z,17.15
2018-06-23T20:57:49.219Z,15.78
2018-06-23T21:00:17.256Z,16.95
2018-06-23T21:02:45.275Z,21.30
2018-06-23T21:05:13.319Z,14.68
2018-06-23T21:07:41.365Z,16.60
2018-06-23T21:10:23.377Z,14.87
2018-06-23T21:12:51.421Z,16.42
2018-06-23T21:15:19.460Z,15.35
2018-06-23T21:17:47.537Z,15.93
2018-06-23T21:20:15.593Z,17.23
2018-06-23T21:22:43.615Z,18.98
2018-06-23T21:25:11.653Z,14.95
2018-06-23T21:27:39.697Z,16.07
2018-06-23T21:30:07.724Z,15.85
2018-06-23T21:32:35.740Z,16.90
2018-06-23T21:35:03.793Z,15.90
2018-06-23T21:37:31.816Z,19.73
2018-06-23T21:39:59.827Z,20.27
2018-06-23T21:42:27.888Z,18.92
2018-06-23T21:44:55.724Z,17.93
2018-06-23T21:47:24.355Z,19.30
2018-06-23T21:49:52.326Z,19.00
2018-06-23T21:52:20.344Z,12.90
2018-06-23T21:54:48.370Z,18.70
2018-06-23T21:57:16.384Z,13.80
2018-06-23T21:59:44.748Z,16.50
2018-06-23T22:02:12.793Z,13.80
2018-06-23T22:04:40.795Z,15.18
2018-06-23T22:07:08.809Z,13.03
2018-06-23T22:09:36.837Z,15.50
2018-06-23T22:12:04.981Z,14.80
2018-06-23T22:14:32.946Z,13.53
2018-06-23T22:17:00.966Z,15.80
2018-06-23T22:19:28.977Z,16.70
2018-06-23T22:21:57.000Z,14.95
2018-06-23T22:24:25.020Z,16.60
2018-06-23T22:26:53.032Z,13.28
2018-06-23T22:29:21.096Z,16.73
2018-06-23T22:31:49.231Z,14.77
2018-06-23T22:34:17.255Z,13.20
2018-06-23T22:36:45.302Z,11.38
2018-06-23T22:39:13.584Z,15.05
2018-06-23T22:41:41.744Z,15.08
2018-06-23T22:44:10.020Z,17.60
2018-06-23T22:46:38.076Z,15.75
2018-06-23T22:49:06.138Z,13.95
2018-06-23T22:51:34.196Z,15.15
2018-06-23T22:54:02.513Z,15.13
2018-06-23T22:56:30.791Z,14.30
2018-06-23T22:58:59.065Z,13.95
2018-06-23T23:01:27.110Z,18.00
2018-06-23T23:03:55.172Z,17.80
2018-06-23T23:06:23.205Z,12.05
2018-06-23T23:08:51.239Z,15.75
2018-06-23T23:11:19.269Z,19.07
2018-06-23T23:13:47.305Z,15.65
2018-06-23T23:16:15.325Z,15.25
2018-06-23T23:18:43.392Z,17.13
2018-06-23T23:21:11.413Z,14.05
2018-06-23T23:23:39.437Z,15.30
2018-06-23T23:26:07.472Z,17.93
2018-06-23T23:28:35.300Z,15.60
2018-06-23T23:31:03.340Z,18.30
2018-06-23T23:33:31.373Z,18.73
2018-06-23T23:35:59.189Z,18.30
2018-06-23T23:38:27.197Z,16.40
2018-06-23T23:40:55.025Z,15.93
2018-06-23T23:43:23.053Z,18.90
2018-06-23T23:45:51.091Z,17.27
2018-06-23T23:48:19.148Z,20.27
2018-06-23T23:50:47.183Z,18.02
2018-06-23T23:53:15.203Z,15.83
2018-06-23T23:55:43.241Z,19.27
2018-06-23T23:58:11.312Z,20.17
